createdAt,value
2018-02-19T00:01:58.000Z,27.2
2018-02-19T00:02:58.000Z,27.2
2018-02-19T00:03:58.000Z,27.3
2018-02-19T00:05:58.000Z,27.3
2018-02-19T00:06:58.000Z,27.3
2018-02-19T00:07:58.000Z,27.3
2018-02-19T00:09:58.000Z,27.4
2018-02-19T00:10:58.000Z,27.4
2018-02-19T00:12:58.000Z,27.4
2018-02-19T00:14:43.000Z,27.3
2018-02-19T00:15:58.000Z,27.2
2018-02-19T00:17:58.000Z,27.2
2018-02-19T00:19:58.000Z,27.1
2018-02-19T00:20:58.000Z,27.1
2018-02-19T00:21:58.000Z,27.1
2018-02-19T00:22:58.000Z,27.2
2018-02-19T00:24:58.000Z,27.2
2018-02-19T00:25:58.000Z,27.3
2018-02-19T00:27:58.000Z,27.3
2018-02-19T00:29:58.000Z,27.2
2018-02-19T00:31:58.000Z,27.1
2018-02-19T00:32:58.000Z,27.1
2018-02-19T00:34:58.000Z,27.1
2018-02-19T00:35:58.000Z,27.1
2018-02-19T00:37:58.000Z,27.1
2018-02-19T00:39:43.000Z,27.1
2018-02-19T00:40:58.000Z,27.1
2018-02-19T00:42:58.000Z,27
2018-02-19T00:44:58.000Z,26.9
2018-02-19T00:46:58.000Z,26.8
2018-02-19T00:48:58.000Z,26.7
2018-02-19T00:50:58.000Z,26.7
2018-02-19T00:52:58.000Z,26.8
2018-02-19T00:53:58.000Z,26.8
2018-02-19T00:55:58.000Z,26.9
2018-02-19T00:57:43.000Z,26.9
2018-02-19T00:58:58.000Z,26.9
2018-02-19T01:00:58.000Z,26.9
2018-02-19T01:02:43.000Z,26.9
2018-02-19T01:03:58.000Z,26.9
2018-02-19T01:04:58.000Z,26.9
2018-02-19T01:06:58.000Z,27
2018-02-19T01:07:58.000Z,27
2018-02-19T01:08:58.000Z,27
2018-02-19T01:10:58.000Z,27
2018-02-19T01:11:58.000Z,27
2018-02-19T01:13:58.000Z,27.1
2018-02-19T01:15:58.000Z,27
2018-02-19T01:17:58.000Z,27
2018-02-19T01:18:58.000Z,27
2018-02-19T01:20:58.000Z,27
2018-02-19T01:21:58.000Z,27
2018-02-19T01:22:58.000Z,27
2018-02-19T01:24:58.000Z,27.1
2018-02-19T01:26:58.000Z,27
2018-02-19T01:28:58.000Z,26.9
2018-02-19T01:29:58.000Z,26.9
2018-02-19T01:31:58.000Z,26.9
2018-02-19T01:33:58.000Z,26.9
2018-02-19T01:35:58.000Z,26.9
2018-02-19T01:37:58.000Z,26.9
2018-02-19T01:38:58.000Z,26.9
2018-02-19T01:39:58.000Z,27
2018-02-19T01:41:43.000Z,27
2018-02-19T01:42:58.000Z,27
2018-02-19T01:43:58.000Z,27
2018-02-19T01:44:58.000Z,27.1
2018-02-19T01:46:58.000Z,27.1
2018-02-19T01:48:43.000Z,27.1
2018-02-19T01:49:58.000Z,27.1
2018-02-19T01:50:58.000Z,27
2018-02-19T01:51:58.000Z,27.1
2018-02-19T01:53:43.000Z,27.2
2018-02-19T01:54:58.000Z,27.1
2018-02-19T01:56:58.000Z,27.1
2018-02-19T01:57:58.000Z,27
2018-02-19T01:59:58.000Z,27
2018-02-19T02:01:58.000Z,27
2018-02-19T02:02:58.000Z,27
2018-02-19T02:03:58.000Z,27.1
2018-02-19T02:05:58.000Z,27.1
2018-02-19T02:07:58.000Z,27
2018-02-19T02:09:58.000Z,26.9
2018-02-19T02:10:58.000Z,26.9
2018-02-19T02:11:58.000Z,26.9
2018-02-19T02:13:58.000Z,26.9
2018-02-19T02:14:58.000Z,27
2018-02-19T02:16:58.000Z,27
2018-02-19T02:18:58.000Z,26.9
2018-02-19T02:19:58.000Z,26.9
2018-02-19T02:21:58.000Z,26.9
2018-02-19T02:22:58.000Z,26.9
2018-02-19T02:23:58.000Z,27
2018-02-19T02:25:58.000Z,27
2018-02-19T02:26:58.000Z,27
2018-02-19T02:28:58.000Z,27
2018-02-19T02:30:58.000Z,27
2018-02-19T02:31:58.000Z,27
2018-02-19T02:32:58.000Z,27
2018-02-19T02:33:58.000Z,27
2018-02-19T02:35:58.000Z,27.1
2018-02-19T02:36:58.000Z,27.1
2018-02-19T02:38:58.000Z,27.1
2018-02-19T02:40:58.000Z,27
2018-02-19T02:42:58.000Z,26.9
2018-02-19T02:43:58.000Z,26.9
2018-02-19T02:45:43.000Z,26.9
2018-02-19T02:46:58.000Z,26.9
2018-02-19T02:47:58.000Z,26.9
2018-02-19T02:49:58.000Z,26.9
2018-02-19T02:51:58.000Z,26.8
2018-02-19T02:53:58.000Z,26.8
2018-02-19T02:55:58.000Z,26.7
2018-02-19T02:57:58.000Z,26.7
2018-02-19T02:58:58.000Z,26.7
2018-02-19T02:59:58.000Z,26.7
2018-02-19T03:01:58.000Z,26.8
2018-02-19T03:03:58.000Z,26.8
2018-02-19T03:05:58.000Z,26.8
2018-02-19T03:07:58.000Z,26.7
2018-02-19T03:08:58.000Z,26.8
2018-02-19T03:09:58.000Z,26.8
2018-02-19T03:10:58.000Z,26.9
2018-02-19T03:11:58.000Z,27
2018-02-19T03:13:43.000Z,27
2018-02-19T03:14:58.000Z,27
2018-02-19T03:15:58.000Z,27
2018-02-19T03:17:58.000Z,27
2018-02-19T03:19:58.000Z,27
2018-02-19T03:21:58.000Z,26.9
2018-02-19T03:22:58.000Z,26.9
2018-02-19T03:23:58.000Z,27
2018-02-19T03:25:58.000Z,27
2018-02-19T03:26:58.000Z,27
2018-02-19T03:27:58.000Z,27
2018-02-19T03:29:58.000Z,27
2018-02-19T03:31:43.000Z,26.9
2018-02-19T03:32:58.000Z,26.8
2018-02-19T03:33:58.000Z,26.9
2018-02-19T03:35:58.000Z,26.9
2018-02-19T03:37:58.000Z,26.9
2018-02-19T03:39:58.000Z,26.9
2018-02-19T03:40:58.000Z,26.9
2018-02-19T03:41:58.000Z,26.9
2018-02-19T03:42:58.000Z,26.9
2018-02-19T03:44:58.000Z,26.9
2018-02-19T03:45:58.000Z,27
2018-02-19T03:46:58.000Z,27
2018-02-19T03:48:58.000Z,27
2018-02-19T03:49:58.000Z,27
2018-02-19T03:51:58.000Z,27
2018-02-19T03:53:58.000Z,26.8
2018-02-19T03:54:58.000Z,26.8
2018-02-19T03:55:58.000Z,26.8
2018-02-19T03:57:58.000Z,26.9
2018-02-19T03:59:58.000Z,26.9
2018-02-19T04:01:43.000Z,26.9
2018-02-19T04:02:58.000Z,26.8
2018-02-19T04:04:58.000Z,26.8
2018-02-19T04:05:58.000Z,26.8
2018-02-19T04:06:58.000Z,26.8
2018-02-19T04:07:58.000Z,26.9
2018-02-19T04:09:58.000Z,26.9
2018-02-19T04:11:43.000Z,26.9
2018-02-19T04:12:58.000Z,26.9
2018-02-19T04:14:58.000Z,26.9
2018-02-19T04:15:58.000Z,26.9
2018-02-19T04:16:58.000Z,26.9
2018-02-19T04:18:58.000Z,27
2018-02-19T04:19:58.000Z,27
2018-02-19T04:20:58.000Z,27
2018-02-19T04:21:58.000Z,27
2018-02-19T04:23:58.000Z,27
2018-02-19T04:24:58.000Z,27
2018-02-19T04:25:58.000Z,27
2018-02-19T04:27:43.000Z,27.1
2018-02-19T04:28:58.000Z,27
2018-02-19T04:30:58.000Z,26.9
2018-02-19T04:31:58.000Z,26.9
2018-02-19T04:33:58.000Z,26.9
2018-02-19T04:35:58.000Z,26.9
2018-02-19T04:37:58.000Z,26.8
2018-02-19T04:39:58.000Z,26.7
2018-02-19T04:41:58.000Z,26.7
2018-02-19T04:42:58.000Z,26.7
2018-02-19T04:43:58.000Z,26.8
2018-02-19T04:45:58.000Z,26.8
2018-02-19T04:46:58.000Z,26.8
2018-02-19T04:47:58.000Z,26.9
2018-02-19T04:48:58.000Z,26.9
2018-02-19T04:49:58.000Z,27
2018-02-19T04:50:58.000Z,27
2018-02-19T04:51:58.000Z,27
2018-02-19T04:53:58.000Z,27.1
2018-02-19T04:54:58.000Z,27.1
2018-02-19T04:56:58.000Z,27.1
2018-02-19T04:57:58.000Z,27.1
2018-02-19T04:59:58.000Z,27.1
2018-02-19T05:01:43.000Z,27
2018-02-19T05:02:58.000Z,26.9
2018-02-19T05:03:58.000Z,26.9
2018-02-19T05:05:58.000Z,26.9
2018-02-19T05:06:58.000Z,26.9
2018-02-19T05:07:58.000Z,27
2018-02-19T05:09:58.000Z,27
2018-02-19T05:10:58.000Z,27
2018-02-19T05:12:58.000Z,27
2018-02-19T05:13:58.000Z,27
2018-02-19T05:15:58.000Z,27
2018-02-19T05:17:58.000Z,26.8
2018-02-19T05:18:58.000Z,26.8
2018-02-19T05:19:58.000Z,26.8
2018-02-19T05:21:58.000Z,26.8
2018-02-19T05:23:58.000Z,26.7
2018-02-19T05:24:58.000Z,26.7
2018-02-19T05:26:58.000Z,26.8
2018-02-19T05:27:58.000Z,26.8
2018-02-19T05:28:58.000Z,26.9
2018-02-19T05:30:58.000Z,26.9
2018-02-19T05:31:58.000Z,26.9
2018-02-19T05:33:58.000Z,26.8
2018-02-19T05:34:58.000Z,26.8
2018-02-19T05:36:58.000Z,26.7
2018-02-19T05:37:58.000Z,26.7
2018-02-19T05:38:58.000Z,26.7
2018-02-19T05:40:58.000Z,26.8
2018-02-19T05:41:58.000Z,26.8
2018-02-19T05:43:58.000Z,26.7
2018-02-19T05:44:58.000Z,26.7
2018-02-19T05:46:58.000Z,26.7
2018-02-19T05:48:58.000Z,26.7
2018-02-19T05:49:58.000Z,26.7
2018-02-19T05:50:58.000Z,26.8
2018-02-19T05:51:58.000Z,26.8
2018-02-19T05:52:58.000Z,26.9
2018-02-19T05:54:58.000Z,26.9
2018-02-19T05:55:58.000Z,27
2018-02-19T05:56:58.000Z,27
2018-02-19T05:57:58.000Z,27
2018-02-19T05:59:58.000Z,27
2018-02-19T06:01:58.000Z,26.9
2018-02-19T06:02:58.000Z,26.9
2018-02-19T06:04:58.000Z,26.9
2018-02-19T06:06:58.000Z,26.8
2018-02-19T06:08:58.000Z,26.8
2018-02-19T06:09:58.000Z,26.8
2018-02-19T06:10:58.000Z,26.9
2018-02-19T06:12:58.000Z,26.9
2018-02-19T06:13:58.000Z,27
2018-02-19T06:15:43.000Z,27
2018-02-19T06:16:58.000Z,27
2018-02-19T06:18:43.000Z,27
2018-02-19T06:19:58.000Z,27
2018-02-19T06:20:58.000Z,27
2018-02-19T06:21:58.000Z,27
2018-02-19T06:22:58.000Z,27.1
2018-02-19T06:24:58.000Z,27.1
2018-02-19T06:25:58.000Z,27.1
2018-02-19T06:26:58.000Z,27.2
2018-02-19T06:28:58.000Z,27.2
2018-02-19T06:30:58.000Z,27.1
2018-02-19T06:31:58.000Z,27.2
2018-02-19T06:33:58.000Z,27.2
2018-02-19T06:34:58.000Z,27.2
2018-02-19T06:36:58.000Z,27.3
2018-02-19T06:37:58.000Z,27.3
2018-02-19T06:38:58.000Z,27.3
2018-02-19T06:39:58.000Z,27.4
2018-02-19T06:40:58.000Z,27.4
2018-02-19T06:42:58.000Z,27.4
2018-02-19T06:43:58.000Z,27.4
2018-02-19T06:44:58.000Z,27.5
2018-02-19T06:46:58.000Z,27.5
2018-02-19T06:47:58.000Z,27.5
2018-02-19T06:48:58.000Z,27.5
2018-02-19T06:50:58.000Z,27.4
2018-02-19T06:52:58.000Z,27.4
2018-02-19T06:54:58.000Z,27.3
2018-02-19T06:55:58.000Z,27.3
2018-02-19T06:57:58.000Z,27.3
2018-02-19T06:58:58.000Z,27.3
2018-02-19T07:00:58.000Z,27.3
2018-02-19T07:02:58.000Z,27.2
2018-02-19T07:03:58.000Z,27.2
2018-02-19T07:04:58.000Z,27.3
2018-02-19T07:05:58.000Z,27.4
2018-02-19T07:07:58.000Z,27.5
2018-02-19T07:08:58.000Z,27.5
2018-02-19T07:09:57.000Z,27.5
2018-02-19T07:10:57.000Z,27.6
2018-02-19T07:12:57.000Z,27.7
2018-02-19T07:14:57.000Z,27.6
2018-02-19T07:16:57.000Z,27.6
2018-02-19T07:17:57.000Z,27.6
2018-02-19T07:19:57.000Z,27.6
2018-02-19T07:20:57.000Z,27.6
2018-02-19T07:22:57.000Z,27.6
2018-02-19T07:24:57.000Z,27.6
2018-02-19T07:26:57.000Z,27.5
2018-02-19T07:28:42.000Z,27.5
2018-02-19T07:29:57.000Z,27.5
2018-02-19T07:31:57.000Z,27.4
2018-02-19T07:32:57.000Z,27.4
2018-02-19T07:34:57.000Z,27.4
2018-02-19T07:35:57.000Z,27.5
2018-02-19T07:37:57.000Z,27.6
2018-02-19T07:39:57.000Z,27.6
2018-02-19T07:41:57.000Z,27.5
2018-02-19T07:43:57.000Z,27.5
2018-02-19T07:45:57.000Z,27.5
2018-02-19T07:47:57.000Z,27.5
2018-02-19T07:49:57.000Z,27.5
2018-02-19T07:51:57.000Z,27.5
2018-02-19T07:52:57.000Z,27.5
2018-02-19T07:53:57.000Z,27.5
2018-02-19T07:54:57.000Z,27.6
2018-02-19T07:55:57.000Z,27.7
2018-02-19T07:56:57.000Z,27.7
2018-02-19T07:58:57.000Z,27.8
2018-02-19T07:59:57.000Z,27.8
2018-02-19T08:01:57.000Z,27.9
2018-02-19T08:02:57.000Z,27.9
2018-02-19T08:04:57.000Z,28
2018-02-19T08:05:57.000Z,28
2018-02-19T08:07:57.000Z,28
2018-02-19T08:09:57.000Z,28
2018-02-19T08:10:57.000Z,27.9
2018-02-19T08:12:42.000Z,28
2018-02-19T08:13:58.000Z,28
2018-02-19T08:14:58.000Z,28
2018-02-19T08:15:58.000Z,28.1
2018-02-19T08:17:58.000Z,28.2
2018-02-19T08:19:58.000Z,28.2
2018-02-19T08:21:58.000Z,28.2
2018-02-19T08:22:58.000Z,28.2
2018-02-19T08:23:58.000Z,28.2
2018-02-19T08:25:58.000Z,28.3
2018-02-19T08:26:58.000Z,28.3
2018-02-19T08:28:58.000Z,28.4
2018-02-19T08:30:58.000Z,28.3
2018-02-19T08:32:58.000Z,28.4
2018-02-19T08:33:58.000Z,28.4
2018-02-19T08:35:58.000Z,28.5
2018-02-19T08:36:58.000Z,28.6
2018-02-19T08:38:58.000Z,28.7
2018-02-19T08:39:58.000Z,28.8
2018-02-19T08:41:42.000Z,28.9
2018-02-19T08:42:58.000Z,29
2018-02-19T08:43:58.000Z,29
2018-02-19T08:45:58.000Z,29.1
2018-02-19T08:46:58.000Z,29.2
2018-02-19T08:47:58.000Z,29.2
2018-02-19T08:49:58.000Z,29.2
2018-02-19T08:50:58.000Z,29.2
2018-02-19T08:51:58.000Z,29.2
2018-02-19T08:53:58.000Z,29.3
2018-02-19T08:55:58.000Z,29.3
2018-02-19T08:56:58.000Z,29.2
2018-02-19T08:57:58.000Z,29.3
2018-02-19T08:59:58.000Z,29.4
2018-02-19T09:01:58.000Z,29.3
2018-02-19T09:02:58.000Z,29.3
2018-02-19T09:03:58.000Z,29.4
2018-02-19T09:05:58.000Z,29.5
2018-02-19T09:07:58.000Z,29.6
2018-02-19T09:09:58.000Z,29.6
2018-02-19T09:11:58.000Z,29.6
2018-02-19T09:12:58.000Z,29.6
2018-02-19T09:14:58.000Z,29.7
2018-02-19T09:15:58.000Z,29.7
2018-02-19T09:17:58.000Z,29.8
2018-02-19T09:18:58.000Z,29.9
2018-02-19T09:20:58.000Z,29.9
2018-02-19T09:21:58.000Z,29.9
2018-02-19T09:22:58.000Z,29.9
2018-02-19T09:24:58.000Z,29.9
2018-02-19T09:25:58.000Z,29.9
2018-02-19T09:27:58.000Z,29.9
2018-02-19T09:28:58.000Z,29.9
2018-02-19T09:29:58.000Z,29.9
2018-02-19T09:31:43.000Z,29.9
2018-02-19T09:32:58.000Z,29.9
2018-02-19T09:34:58.000Z,29.8
2018-02-19T09:36:58.000Z,29.8
2018-02-19T09:38:58.000Z,29.7
2018-02-19T09:40:58.000Z,29.8
2018-02-19T09:42:58.000Z,29.8
2018-02-19T09:43:58.000Z,29.9
2018-02-19T09:45:58.000Z,30.1
2018-02-19T09:46:58.000Z,30.2
2018-02-19T09:47:58.000Z,30.3
2018-02-19T09:49:58.000Z,30.5
2018-02-19T09:51:58.000Z,30.7
2018-02-19T09:53:43.000Z,30.8
2018-02-19T09:54:58.000Z,30.8
2018-02-19T09:56:58.000Z,31
2018-02-19T09:58:58.000Z,31.1
2018-02-19T09:59:58.000Z,31.1
2018-02-19T10:01:58.000Z,31.3
2018-02-19T10:02:58.000Z,31.4
2018-02-19T10:04:58.000Z,31.5
2018-02-19T10:05:58.000Z,31.4
2018-02-19T10:07:58.000Z,31.3
2018-02-19T10:08:58.000Z,31.2
2018-02-19T10:10:43.000Z,31.1
2018-02-19T10:11:58.000Z,30.9
2018-02-19T10:12:58.000Z,30.9
2018-02-19T10:14:58.000Z,30.8
2018-02-19T10:15:58.000Z,30.7
2018-02-19T10:17:58.000Z,30.6
2018-02-19T10:18:58.000Z,30.6
2018-02-19T10:20:57.000Z,30.6
2018-02-19T10:22:57.000Z,30.5
2018-02-19T10:24:57.000Z,30.4
2018-02-19T10:25:57.000Z,30.3
2018-02-19T10:27:57.000Z,30.3
2018-02-19T10:29:57.000Z,30.3
2018-02-19T10:31:42.000Z,30.2
2018-02-19T10:32:57.000Z,30.2
2018-02-19T10:34:42.000Z,30.2
2018-02-19T10:35:57.000Z,30.1
2018-02-19T10:36:57.000Z,30.2
2018-02-19T10:37:57.000Z,30.2
2018-02-19T10:39:57.000Z,30.3
2018-02-19T10:41:57.000Z,30.3
2018-02-19T10:42:57.000Z,30.3
2018-02-19T10:43:57.000Z,30.3
2018-02-19T10:45:57.000Z,30.3
2018-02-19T10:47:42.000Z,30.2
2018-02-19T10:48:57.000Z,30.2
2018-02-19T10:49:57.000Z,30.2
2018-02-19T10:51:57.000Z,30.2
2018-02-19T10:53:57.000Z,30.2
2018-02-19T10:55:57.000Z,30.2
2018-02-19T10:56:57.000Z,30.2
2018-02-19T10:58:57.000Z,30.2
2018-02-19T10:59:57.000Z,30.2
2018-02-19T11:01:57.000Z,30.3
2018-02-19T11:02:57.000Z,30.3
2018-02-19T11:03:57.000Z,30.3
2018-02-19T11:05:57.000Z,30.3
2018-02-19T11:07:57.000Z,30.2
2018-02-19T11:08:57.000Z,30.2
2018-02-19T11:10:57.000Z,30.2
2018-02-19T11:11:57.000Z,30.2
2018-02-19T11:12:57.000Z,30.2
2018-02-19T11:14:57.000Z,30.2
2018-02-19T11:16:57.000Z,30.1
2018-02-19T11:17:57.000Z,30.1
2018-02-19T11:19:57.000Z,30.2
2018-02-19T11:20:57.000Z,30.2
2018-02-19T11:22:57.000Z,30.2
2018-02-19T11:24:58.000Z,30.1
2018-02-19T11:26:42.000Z,30.1
2018-02-19T11:27:58.000Z,30
2018-02-19T11:29:58.000Z,30
2018-02-19T11:31:58.000Z,30
2018-02-19T11:32:58.000Z,29.9
2018-02-19T11:33:58.000Z,29.9
2018-02-19T11:34:58.000Z,29.9
2018-02-19T11:36:58.000Z,30
2018-02-19T11:38:58.000Z,30
2018-02-19T11:40:58.000Z,30
2018-02-19T11:42:58.000Z,30
2018-02-19T11:43:58.000Z,30
2018-02-19T11:45:42.000Z,30
2018-02-19T11:46:58.000Z,30
2018-02-19T11:47:58.000Z,30
2018-02-19T11:48:58.000Z,30.1
2018-02-19T11:49:58.000Z,30.1
2018-02-19T11:51:58.000Z,30.2
2018-02-19T11:53:58.000Z,30.2
2018-02-19T11:55:42.000Z,30.1
2018-02-19T11:56:58.000Z,30.1
2018-02-19T11:58:58.000Z,30
2018-02-19T11:59:58.000Z,30
2018-02-19T12:01:58.000Z,30
2018-02-19T12:03:58.000Z,29.9
2018-02-19T12:04:58.000Z,29.9
2018-02-19T12:06:58.000Z,29.9
2018-02-19T12:08:42.000Z,29.9
2018-02-19T12:09:58.000Z,29.9
2018-02-19T12:10:58.000Z,29.9
2018-02-19T12:12:42.000Z,30
2018-02-19T12:13:58.000Z,30
2018-02-19T12:14:58.000Z,30
2018-02-19T12:16:58.000Z,30
2018-02-19T12:17:58.000Z,30
2018-02-19T12:18:58.000Z,30
2018-02-19T12:20:58.000Z,30.1
2018-02-19T12:21:58.000Z,30.1
2018-02-19T12:22:58.000Z,30.1
2018-02-19T12:24:58.000Z,30
2018-02-19T12:26:58.000Z,30
2018-02-19T12:28:58.000Z,30
2018-02-19T12:29:58.000Z,29.9
2018-02-19T12:31:58.000Z,29.9
2018-02-19T12:33:58.000Z,29.9
2018-02-19T12:34:58.000Z,29.9
2018-02-19T12:36:58.000Z,29.9
2018-02-19T12:38:58.000Z,29.9
2018-02-19T12:39:58.000Z,30
2018-02-19T12:41:58.000Z,30
2018-02-19T12:43:58.000Z,30
2018-02-19T12:44:58.000Z,30
2018-02-19T12:45:58.000Z,30
2018-02-19T12:47:58.000Z,30
2018-02-19T12:48:58.000Z,30
2018-02-19T12:50:58.000Z,30
2018-02-19T12:51:58.000Z,30
2018-02-19T12:53:58.000Z,30.1
2018-02-19T12:55:58.000Z,30.1
2018-02-19T12:57:58.000Z,30
2018-02-19T12:59:58.000Z,30
2018-02-19T13:00:58.000Z,30
2018-02-19T13:02:58.000Z,30.1
2018-02-19T13:03:58.000Z,30.1
2018-02-19T13:05:58.000Z,30.1
2018-02-19T13:06:58.000Z,30.1
2018-02-19T13:07:58.000Z,30.2
2018-02-19T13:09:58.000Z,30.1
2018-02-19T13:11:58.000Z,30
2018-02-19T13:13:58.000Z,30
2018-02-19T13:14:58.000Z,30
2018-02-19T13:16:58.000Z,30
2018-02-19T13:17:58.000Z,30.1
2018-02-19T13:19:58.000Z,30.1
2018-02-19T13:21:58.000Z,30.1
2018-02-19T13:22:58.000Z,30.1
2018-02-19T13:23:58.000Z,30.1
2018-02-19T13:24:58.000Z,30.2
2018-02-19T13:26:58.000Z,30.3
2018-02-19T13:28:58.000Z,30.3
2018-02-19T13:29:58.000Z,30.3
2018-02-19T13:30:58.000Z,30.3
2018-02-19T13:32:58.000Z,30.2
2018-02-19T13:33:58.000Z,30.2
2018-02-19T13:34:58.000Z,30.2
2018-02-19T13:36:58.000Z,30.3
2018-02-19T13:38:58.000Z,30.3
2018-02-19T13:39:58.000Z,30.3
2018-02-19T13:41:58.000Z,30.3
2018-02-19T13:43:58.000Z,30.3
2018-02-19T13:45:58.000Z,30.2
2018-02-19T13:47:58.000Z,30.2
2018-02-19T13:49:58.000Z,30.1
2018-02-19T13:51:58.000Z,30.1
2018-02-19T13:52:58.000Z,30.1
2018-02-19T13:54:58.000Z,30.2
2018-02-19T13:56:58.000Z,30.1
2018-02-19T13:58:58.000Z,30.1
2018-02-19T13:59:58.000Z,30.1
2018-02-19T14:01:58.000Z,30
2018-02-19T14:03:58.000Z,30
2018-02-19T14:04:58.000Z,30
2018-02-19T14:06:58.000Z,30
2018-02-19T14:08:58.000Z,30.1
2018-02-19T14:10:58.000Z,30.4
2018-02-19T14:12:58.000Z,30.5
2018-02-19T14:14:58.000Z,30.6
2018-02-19T14:15:58.000Z,30.7
2018-02-19T14:16:58.000Z,30.8
2018-02-19T14:18:58.000Z,31
2018-02-19T14:20:58.000Z,31
2018-02-19T14:21:58.000Z,31
2018-02-19T14:22:58.000Z,31
2018-02-19T14:24:43.000Z,31
2018-02-19T14:25:58.000Z,30.9
2018-02-19T14:27:58.000Z,30.7
2018-02-19T14:29:58.000Z,30.5
2018-02-19T14:31:58.000Z,30.5
2018-02-19T14:32:58.000Z,30.4
2018-02-19T14:34:57.000Z,30.5
2018-02-19T14:35:57.000Z,30.5
2018-02-19T14:36:57.000Z,30.5
2018-02-19T14:38:57.000Z,30.5
2018-02-19T14:40:57.000Z,30.5
2018-02-19T14:42:57.000Z,30.5
2018-02-19T14:44:57.000Z,30.4
2018-02-19T14:46:57.000Z,30.4
2018-02-19T14:48:57.000Z,30.3
2018-02-19T14:50:57.000Z,30.3
2018-02-19T14:51:57.000Z,30.3
2018-02-19T14:53:57.000Z,30.4
2018-02-19T14:55:57.000Z,30.4
2018-02-19T14:56:57.000Z,30.4
2018-02-19T14:58:57.000Z,30.5
2018-02-19T15:00:57.000Z,30.5
2018-02-19T15:02:57.000Z,30.5
2018-02-19T15:03:57.000Z,30.5
2018-02-19T15:04:57.000Z,30.5
2018-02-19T15:06:57.000Z,30.5
2018-02-19T15:08:57.000Z,30.4
2018-02-19T15:09:57.000Z,30.4
2018-02-19T15:10:57.000Z,30.4
2018-02-19T15:12:57.000Z,30.5
2018-02-19T15:14:57.000Z,30.5
2018-02-19T15:15:57.000Z,30.5
2018-02-19T15:17:57.000Z,30.6
2018-02-19T15:18:57.000Z,30.6
2018-02-19T15:20:57.000Z,30.5
2018-02-19T15:22:57.000Z,30.5
2018-02-19T15:24:57.000Z,30.4
2018-02-19T15:25:57.000Z,30.4
2018-02-19T15:27:57.000Z,30.5
2018-02-19T15:29:57.000Z,30.4
2018-02-19T15:31:57.000Z,30.4
2018-02-19T15:33:57.000Z,30.4
2018-02-19T15:35:57.000Z,30.3
2018-02-19T15:37:57.000Z,30.2
2018-02-19T15:38:58.000Z,30.3
2018-02-19T15:39:58.000Z,30.3
2018-02-19T15:41:58.000Z,30.3
2018-02-19T15:43:58.000Z,30.3
2018-02-19T15:44:58.000Z,30.3
2018-02-19T15:45:58.000Z,30.3
2018-02-19T15:47:58.000Z,30.4
2018-02-19T15:49:58.000Z,30.4
2018-02-19T15:50:58.000Z,30.4
2018-02-19T15:51:58.000Z,30.4
2018-02-19T15:52:58.000Z,30.5
2018-02-19T15:54:58.000Z,30.5
2018-02-19T15:56:58.000Z,30.4
2018-02-19T15:57:58.000Z,30.4
2018-02-19T15:59:58.000Z,30.5
2018-02-19T16:01:58.000Z,30.4
2018-02-19T16:02:58.000Z,30.4
2018-02-19T16:04:58.000Z,30.4
2018-02-19T16:06:58.000Z,30.4
2018-02-19T16:08:58.000Z,30.3
2018-02-19T16:09:58.000Z,30.2
2018-02-19T16:11:58.000Z,30.2
2018-02-19T16:13:43.000Z,30.2
2018-02-19T16:14:58.000Z,30.1
2018-02-19T16:16:58.000Z,30.1
2018-02-19T16:18:58.000Z,30.1
2018-02-19T16:20:58.000Z,30.1
2018-02-19T16:22:58.000Z,30
2018-02-19T16:23:58.000Z,30
2018-02-19T16:25:58.000Z,30
2018-02-19T16:26:58.000Z,30
2018-02-19T16:27:58.000Z,30.1
2018-02-19T16:29:58.000Z,30.1
2018-02-19T16:31:58.000Z,30
2018-02-19T16:32:58.000Z,30
2018-02-19T16:33:58.000Z,30
2018-02-19T16:34:58.000Z,30
2018-02-19T16:36:58.000Z,30
2018-02-19T16:37:58.000Z,30
2018-02-19T16:38:58.000Z,30
2018-02-19T16:39:58.000Z,30.1
2018-02-19T16:40:58.000Z,30.1
2018-02-19T16:42:57.000Z,30.1
2018-02-19T16:43:57.000Z,30
2018-02-19T16:44:57.000Z,30
2018-02-19T16:46:57.000Z,29.9
2018-02-19T16:48:57.000Z,29.8
2018-02-19T16:50:57.000Z,29.6
2018-02-19T16:51:57.000Z,29.6
2018-02-19T16:53:57.000Z,29.6
2018-02-19T16:54:57.000Z,29.7
2018-02-19T16:55:57.000Z,29.7
2018-02-19T16:57:57.000Z,29.7
2018-02-19T16:59:57.000Z,29.7
2018-02-19T17:01:57.000Z,29.6
2018-02-19T17:03:57.000Z,29.4
2018-02-19T17:04:57.000Z,29.4
2018-02-19T17:05:57.000Z,29.4
2018-02-19T17:07:57.000Z,29.4
2018-02-19T17:09:57.000Z,29.4
2018-02-19T17:10:57.000Z,29.4
2018-02-19T17:11:57.000Z,29.4
2018-02-19T17:12:57.000Z,29.5
2018-02-19T17:13:57.000Z,29.5
2018-02-19T17:15:57.000Z,29.5
2018-02-19T17:17:42.000Z,29.5
2018-02-19T17:18:57.000Z,29.5
2018-02-19T17:19:57.000Z,29.5
2018-02-19T17:20:57.000Z,29.5
2018-02-19T17:22:57.000Z,29.5
2018-02-19T17:23:57.000Z,29.4
2018-02-19T17:24:57.000Z,29.5
2018-02-19T17:26:57.000Z,29.5
2018-02-19T17:27:57.000Z,29.5
2018-02-19T17:29:57.000Z,29.5
2018-02-19T17:31:57.000Z,29.5
2018-02-19T17:33:42.000Z,29.4
2018-02-19T17:34:57.000Z,29.4
2018-02-19T17:35:57.000Z,29.4
2018-02-19T17:36:57.000Z,29.4
2018-02-19T17:38:57.000Z,29.5
2018-02-19T17:40:57.000Z,29.4
2018-02-19T17:42:57.000Z,29.4
2018-02-19T17:44:57.000Z,29.3
2018-02-19T17:45:57.000Z,29.3
2018-02-19T17:47:57.000Z,29.3
2018-02-19T17:48:57.000Z,29.3
2018-02-19T17:50:57.000Z,29.3
2018-02-19T17:52:57.000Z,29.3
2018-02-19T17:53:57.000Z,29.3
2018-02-19T17:54:57.000Z,29.4
2018-02-19T17:56:57.000Z,29.4
2018-02-19T17:57:57.000Z,29.5
2018-02-19T17:58:57.000Z,29.5
2018-02-19T18:00:57.000Z,29.5
2018-02-19T18:01:57.000Z,29.5
2018-02-19T18:03:57.000Z,29.5
2018-02-19T18:05:57.000Z,29.5
2018-02-19T18:06:57.000Z,29.4
2018-02-19T18:07:57.000Z,29.5
2018-02-19T18:09:57.000Z,29.5
2018-02-19T18:10:57.000Z,29.4
2018-02-19T18:11:57.000Z,29.4
2018-02-19T18:12:57.000Z,29.4
2018-02-19T18:14:57.000Z,29.4
2018-02-19T18:15:57.000Z,29.5
2018-02-19T18:17:57.000Z,29.5
2018-02-19T18:19:57.000Z,29.4
2018-02-19T18:21:57.000Z,29.3
2018-02-19T18:22:57.000Z,29.3
2018-02-19T18:24:57.000Z,29.3
2018-02-19T18:25:57.000Z,29.3
2018-02-19T18:27:42.000Z,29.4
2018-02-19T18:28:57.000Z,29.3
2018-02-19T18:30:57.000Z,29.3
2018-02-19T18:31:57.000Z,29.3
2018-02-19T18:32:57.000Z,29.3
2018-02-19T18:34:57.000Z,29.3
2018-02-19T18:36:57.000Z,29.2
2018-02-19T18:37:57.000Z,29.2
2018-02-19T18:39:57.000Z,29.2
2018-02-19T18:41:57.000Z,29.1
2018-02-19T18:42:57.000Z,29.1
2018-02-19T18:44:57.000Z,29.1
2018-02-19T18:45:57.000Z,29.1
2018-02-19T18:46:57.000Z,29.2
2018-02-19T18:48:57.000Z,29.3
2018-02-19T18:49:58.000Z,29.3
2018-02-19T18:50:58.000Z,29.3
2018-02-19T18:52:43.000Z,29.4
2018-02-19T18:53:58.000Z,29.3
2018-02-19T18:54:58.000Z,29.3
2018-02-19T18:56:58.000Z,29.3
2018-02-19T18:57:58.000Z,29.3
2018-02-19T18:59:43.000Z,29.3
2018-02-19T19:00:58.000Z,29.3
2018-02-19T19:01:58.000Z,29.3
2018-02-19T19:03:58.000Z,29.3
2018-02-19T19:05:58.000Z,29.2
2018-02-19T19:06:58.000Z,29.2
2018-02-19T19:07:58.000Z,29.2
2018-02-19T19:08:58.000Z,29.2
2018-02-19T19:10:58.000Z,29.2
2018-02-19T19:12:43.000Z,29.1
2018-02-19T19:13:58.000Z,29.1
2018-02-19T19:14:58.000Z,29.1
2018-02-19T19:16:58.000Z,29.1
2018-02-19T19:18:58.000Z,29.1
2018-02-19T19:20:58.000Z,29
2018-02-19T19:22:58.000Z,28.9
2018-02-19T19:23:58.000Z,28.9
2018-02-19T19:25:58.000Z,28.9
2018-02-19T19:26:58.000Z,28.9
2018-02-19T19:27:58.000Z,28.9
2018-02-19T19:29:58.000Z,29
2018-02-19T19:31:58.000Z,29
2018-02-19T19:33:58.000Z,29
2018-02-19T19:34:58.000Z,29
2018-02-19T19:36:58.000Z,29
2018-02-19T19:37:58.000Z,29
2018-02-19T19:39:58.000Z,29
2018-02-19T19:41:58.000Z,29
2018-02-19T19:42:58.000Z,28.9
2018-02-19T19:44:58.000Z,29
2018-02-19T19:45:58.000Z,29
2018-02-19T19:46:58.000Z,29
2018-02-19T19:48:43.000Z,29
2018-02-19T19:49:58.000Z,29
2018-02-19T19:51:58.000Z,28.9
2018-02-19T19:52:58.000Z,28.9
2018-02-19T19:54:58.000Z,28.9
2018-02-19T19:55:58.000Z,28.9
2018-02-19T19:56:58.000Z,28.9
2018-02-19T19:58:58.000Z,28.9
2018-02-19T20:00:58.000Z,28.9
2018-02-19T20:02:58.000Z,28.8
2018-02-19T20:03:58.000Z,28.8
2018-02-19T20:05:58.000Z,28.7
2018-02-19T20:07:58.000Z,28.7
2018-02-19T20:08:58.000Z,28.7
2018-02-19T20:10:43.000Z,28.7
2018-02-19T20:11:58.000Z,28.7
2018-02-19T20:13:58.000Z,28.6
2018-02-19T20:14:58.000Z,28.6
2018-02-19T20:15:58.000Z,28.7
2018-02-19T20:17:58.000Z,28.7
2018-02-19T20:19:58.000Z,28.7
2018-02-19T20:21:58.000Z,28.7
2018-02-19T20:22:58.000Z,28.7
2018-02-19T20:23:58.000Z,28.7
2018-02-19T20:25:58.000Z,28.7
2018-02-19T20:26:58.000Z,28.7
2018-02-19T20:28:43.000Z,28.7
2018-02-19T20:29:58.000Z,28.7
2018-02-19T20:31:58.000Z,28.6
2018-02-19T20:32:58.000Z,28.6
2018-02-19T20:34:58.000Z,28.7
2018-02-19T20:35:58.000Z,28.7
2018-02-19T20:37:58.000Z,28.7
2018-02-19T20:38:58.000Z,28.7